createdAt,value
2022-10-01T00:01:47.480Z,16.10
2022-10-01T00:04:37.450Z,16.00
2022-10-01T00:07:23.980Z,15.80
2022-10-01T00:10:12.071Z,15.80
2022-10-01T00:12:59.101Z,15.80
2022-10-01T00:15:45.182Z,15.80
2022-10-01T00:18:31.833Z,15.80
2022-10-01T00:21:23.455Z,15.80
2022-10-01T00:24:13.035Z,15.90
2022-10-01T00:26:59.114Z,15.90
2022-10-01T00:29:45.563Z,15.90
2022-10-01T00:32:34.803Z,15.90
2022-10-01T00:35:22.483Z,15.70
2022-10-01T00:38:08.572Z,15.80
2022-10-01T00:40:54.864Z,15.70
2022-10-01T00:43:50.382Z,15.80
2022-10-01T00:46:43.387Z,15.80
2022-10-01T00:49:32.207Z,15.80
2022-10-01T00:52:25.231Z,15.80
2022-10-01T00:55:18.288Z,15.70
2022-10-01T00:58:09.326Z,15.70
2022-10-01T01:00:57.183Z,15.60
2022-10-01T01:03:43.257Z,15.60
2022-10-01T01:06:29.692Z,15.60
2022-10-01T01:09:15.753Z,15.70
2022-10-01T01:12:27.719Z,15.70
2022-10-01T01:15:27.172Z,15.80
2022-10-01T01:18:16.372Z,15.80
2022-10-01T01:21:05.988Z,15.80
2022-10-01T01:24:15.015Z,15.70
2022-10-01T01:27:17.806Z,15.70
2022-10-01T01:30:12.256Z,15.70
2022-10-01T01:33:09.452Z,15.70
2022-10-01T01:36:01.169Z,15.70
2022-10-01T01:38:52.051Z,15.70
2022-10-01T01:41:50.016Z,15.50
2022-10-01T01:44:39.264Z,15.50
2022-10-01T01:47:29.714Z,15.50
2022-10-01T01:50:18.843Z,15.40
2022-10-01T01:53:04.967Z,15.30
2022-10-01T01:55:51.223Z,15.30
2022-10-01T01:58:38.793Z,15.30
2022-10-01T02:01:37.950Z,15.30
2022-10-01T02:04:54.713Z,15.30
2022-10-01T02:07:43.225Z,15.40
2022-10-01T02:10:50.853Z,15.40
2022-10-01T02:13:50.857Z,15.50
2022-10-01T02:16:43.168Z,15.40
2022-10-01T02:19:40.297Z,15.30
2022-10-01T02:22:38.344Z,15.30
2022-10-01T02:25:27.960Z,15.30
2022-10-01T02:28:20.102Z,15.20
2022-10-01T02:31:07.892Z,15.30
2022-10-01T02:33:57.091Z,15.20
2022-10-01T02:36:45.502Z,15.10
2022-10-01T02:39:34.077Z,15.10
2022-10-01T02:42:22.193Z,15.10
2022-10-01T02:45:09.652Z,15.00
2022-10-01T02:48:03.430Z,15.00
2022-10-01T02:50:53.562Z,15.10
2022-10-01T02:53:44.761Z,15.10
2022-10-01T02:56:50.331Z,15.10
2022-10-01T02:59:37.609Z,15.10
2022-10-01T03:02:27.519Z,15.00
2022-10-01T03:05:14.730Z,15.00
2022-10-01T03:08:00.359Z,14.90
2022-10-01T03:10:46.835Z,14.90
2022-10-01T03:13:33.414Z,15.00
2022-10-01T03:16:20.205Z,15.10
2022-10-01T03:19:05.904Z,15.10
2022-10-01T03:21:51.991Z,15.00
2022-10-01T03:24:38.239Z,14.90
2022-10-01T03:27:24.740Z,15.00
2022-10-01T03:30:11.909Z,14.90
2022-10-01T03:32:57.954Z,14.90
2022-10-01T03:35:44.102Z,14.90
2022-10-01T03:38:32.043Z,15.00
2022-10-01T03:41:18.097Z,15.00
2022-10-01T03:44:04.462Z,15.00
2022-10-01T03:46:50.825Z,15.00
2022-10-01T03:49:37.083Z,15.00
2022-10-01T03:52:23.423Z,15.10
2022-10-01T03:55:09.604Z,15.10
2022-10-01T03:57:55.301Z,15.10
2022-10-01T04:00:41.806Z,15.20
2022-10-01T04:03:28.205Z,15.10
2022-10-01T04:06:14.301Z,15.10
2022-10-01T04:09:01.116Z,15.10
2022-10-01T04:11:46.902Z,15.10
2022-10-01T04:14:32.837Z,15.10
2022-10-01T04:17:20.469Z,15.20
2022-10-01T04:20:06.542Z,15.00
2022-10-01T04:22:53.170Z,15.10
2022-10-01T04:25:38.967Z,15.10
2022-10-01T04:28:25.185Z,15.00
2022-10-01T04:31:26.115Z,15.00
2022-10-01T04:34:12.226Z,14.90
2022-10-01T04:36:58.017Z,15.00
2022-10-01T04:39:44.385Z,15.00
2022-10-01T04:42:30.613Z,15.00
2022-10-01T04:45:16.721Z,14.90
2022-10-01T04:48:03.282Z,15.00
2022-10-01T04:50:49.214Z,14.90
2022-10-01T04:53:35.093Z,15.00
2022-10-01T04:56:21.547Z,15.00
2022-10-01T04:59:07.231Z,15.00
2022-10-01T05:01:53.335Z,14.90
2022-10-01T05:04:39.418Z,14.90
2022-10-01T05:07:25.563Z,15.00
2022-10-01T05:10:20.572Z,14.90
2022-10-01T05:13:06.617Z,14.90
2022-10-01T05:15:52.410Z,14.90
2022-10-01T05:18:40.608Z,14.90
2022-10-01T05:21:27.258Z,14.90
2022-10-01T05:24:13.248Z,14.90
2022-10-01T05:26:59.785Z,14.80
2022-10-01T05:29:46.801Z,14.70
2022-10-01T05:32:33.207Z,14.70
2022-10-01T05:35:19.292Z,14.80
2022-10-01T05:38:05.636Z,14.80
2022-10-01T05:40:52.037Z,14.70
2022-10-01T05:43:37.879Z,14.70
2022-10-01T05:46:24.987Z,14.70
2022-10-01T05:49:11.353Z,14.70
2022-10-01T05:51:57.389Z,14.70
2022-10-01T05:54:43.434Z,14.80
2022-10-01T05:57:30.704Z,14.70
2022-10-01T06:00:17.154Z,14.70
2022-10-01T06:03:04.962Z,14.80
2022-10-01T06:05:51.970Z,14.80
2022-10-01T06:08:38.813Z,14.70
2022-10-01T06:11:26.958Z,14.80
2022-10-01T06:14:13.466Z,14.80
2022-10-01T06:16:59.666Z,15.00
2022-10-01T06:19:45.389Z,15.00
2022-10-01T06:22:32.199Z,15.00
2022-10-01T06:25:18.192Z,15.10
2022-10-01T06:28:06.675Z,15.20
2022-10-01T06:30:53.235Z,15.10
2022-10-01T06:33:41.144Z,15.20
2022-10-01T06:36:27.478Z,15.20
2022-10-01T06:39:13.165Z,15.20
2022-10-01T06:41:59.448Z,15.20
2022-10-01T06:44:45.708Z,15.30
2022-10-01T06:47:31.822Z,15.30
2022-10-01T06:50:18.011Z,15.40
2022-10-01T06:53:04.145Z,15.40
2022-10-01T06:55:50.174Z,15.50
2022-10-01T06:58:37.463Z,15.50
2022-10-01T07:01:23.684Z,15.50
2022-10-01T07:04:09.540Z,15.40
2022-10-01T07:06:55.590Z,15.60
2022-10-01T07:09:41.696Z,15.70
2022-10-01T07:12:27.822Z,15.60
2022-10-01T07:15:14.091Z,15.60
2022-10-01T07:18:00.169Z,15.60
2022-10-01T07:20:46.308Z,15.70
2022-10-01T07:23:32.153Z,15.80
2022-10-01T07:26:18.644Z,15.70
2022-10-01T07:29:05.136Z,15.70
2022-10-01T07:31:56.098Z,15.70
2022-10-01T07:34:42.542Z,15.70
2022-10-01T07:37:28.462Z,15.80
2022-10-01T07:40:18.841Z,15.80
2022-10-01T07:43:05.305Z,15.80
2022-10-01T07:45:55.216Z,15.80
2022-10-01T07:48:42.118Z,16.00
2022-10-01T07:51:27.755Z,16.10
2022-10-01T07:54:14.715Z,16.20
2022-10-01T07:57:00.987Z,16.20
2022-10-01T07:59:47.156Z,16.20
2022-10-01T08:02:33.041Z,16.30
2022-10-01T08:05:26.103Z,16.30
2022-10-01T08:08:11.884Z,16.40
2022-10-01T08:10:58.082Z,16.50
2022-10-01T08:13:48.416Z,16.50
2022-10-01T08:16:34.557Z,16.60
2022-10-01T08:19:20.300Z,16.60
2022-10-01T08:22:07.456Z,16.60
2022-10-01T08:24:54.204Z,16.70
2022-10-01T08:27:40.373Z,16.70
2022-10-01T08:30:27.228Z,16.60
2022-10-01T08:33:14.286Z,16.70
2022-10-01T08:36:08.055Z,16.60
2022-10-01T08:38:54.559Z,16.60
2022-10-01T08:41:44.042Z,16.70
2022-10-01T08:44:37.560Z,16.70
2022-10-01T08:47:31.421Z,16.80
2022-10-01T08:50:22.277Z,16.80
2022-10-01T08:53:16.101Z,16.90
2022-10-01T08:56:04.294Z,16.90
2022-10-01T08:58:58.996Z,16.90
2022-10-01T09:01:45.703Z,16.90
2022-10-01T09:04:31.567Z,16.90
2022-10-01T09:07:21.672Z,17.10
2022-10-01T09:10:25.739Z,17.10
2022-10-01T09:13:50.104Z,17.20
2022-10-01T09:16:40.466Z,17.10
2022-10-01T09:19:40.718Z,17.40
2022-10-01T09:22:45.376Z,17.50
2022-10-01T09:25:33.262Z,17.60
2022-10-01T09:28:30.887Z,17.70
2022-10-01T09:31:27.812Z,17.90
2022-10-01T09:34:25.654Z,17.90
2022-10-01T09:37:24.228Z,18.00
2022-10-01T09:40:31.376Z,17.90
2022-10-01T09:43:20.485Z,18.00
2022-10-01T09:46:13.452Z,18.00
2022-10-01T09:49:21.456Z,17.90
2022-10-01T09:52:35.482Z,17.90
2022-10-01T09:55:40.733Z,18.00
2022-10-01T09:58:29.341Z,18.00
2022-10-01T10:01:23.671Z,18.10
2022-10-01T10:04:11.050Z,18.00
2022-10-01T10:07:02.676Z,18.10
2022-10-01T10:09:48.470Z,18.30
2022-10-01T10:12:35.111Z,18.50
2022-10-01T10:15:26.223Z,18.60
2022-10-01T10:18:21.512Z,18.50
2022-10-01T10:21:22.076Z,18.60
2022-10-01T10:24:24.550Z,18.60
2022-10-01T10:27:31.236Z,18.70
2022-10-01T10:30:18.437Z,18.80
2022-10-01T10:33:06.680Z,19.00
2022-10-01T10:36:02.407Z,18.90
2022-10-01T10:38:52.498Z,19.10
2022-10-01T10:41:38.890Z,18.90
2022-10-01T10:44:28.150Z,19.00
2022-10-01T10:47:15.545Z,18.90
2022-10-01T10:50:04.956Z,19.00
2022-10-01T10:52:51.913Z,19.10
2022-10-01T10:55:39.238Z,19.30
2022-10-01T10:58:27.433Z,19.50
2022-10-01T11:01:20.205Z,19.50
2022-10-01T11:04:34.301Z,19.50
2022-10-01T11:07:23.870Z,19.50
2022-10-01T11:10:28.838Z,19.50
2022-10-01T11:13:43.355Z,19.50
2022-10-01T11:16:48.037Z,19.40
2022-10-01T11:20:01.534Z,19.60
2022-10-01T11:23:17.153Z,19.60
2022-10-01T11:26:20.560Z,19.60
2022-10-01T11:29:26.253Z,19.40
2022-10-01T11:32:50.234Z,19.40
2022-10-01T11:35:57.117Z,19.50
2022-10-01T11:38:52.890Z,19.50
2022-10-01T11:41:49.469Z,19.50
2022-10-01T11:44:39.869Z,19.60
2022-10-01T11:47:36.821Z,19.70
2022-10-01T11:50:29.987Z,19.70
2022-10-01T11:53:24.772Z,19.70
2022-10-01T11:56:38.070Z,19.90
2022-10-01T11:59:51.028Z,20.00
2022-10-01T12:03:01.793Z,20.30
2022-10-01T12:05:48.227Z,20.50
2022-10-01T12:08:36.703Z,20.40
2022-10-01T12:11:31.961Z,20.30
2022-10-01T12:14:22.996Z,20.30
2022-10-01T12:17:41.504Z,20.40
2022-10-01T12:20:34.562Z,20.40
2022-10-01T12:23:34.790Z,20.40
2022-10-01T12:26:54.544Z,20.30
2022-10-01T12:29:44.054Z,20.40
2022-10-01T12:32:52.436Z,20.70
2022-10-01T12:36:03.411Z,20.60
2022-10-01T12:39:05.986Z,20.70
2022-10-01T12:42:16.348Z,20.80
2022-10-01T12:45:28.449Z,21.00
2022-10-01T12:48:39.518Z,21.10
2022-10-01T12:51:37.652Z,21.10
2022-10-01T12:54:31.076Z,21.50
2022-10-01T12:57:46.565Z,21.80
2022-10-01T13:01:00.982Z,21.80
2022-10-01T13:03:49.868Z,21.90
2022-10-01T13:07:09.966Z,21.90
2022-10-01T13:10:29.691Z,22.00
2022-10-01T13:13:22.192Z,22.00
2022-10-01T13:16:30.303Z,22.10
2022-10-01T13:19:38.490Z,22.20
2022-10-01T13:22:33.980Z,22.70
2022-10-01T13:25:30.967Z,23.50
2022-10-01T13:28:27.469Z,25.80
2022-10-01T13:31:16.352Z,27.00
2022-10-01T13:34:03.313Z,27.60
2022-10-01T13:36:49.623Z,28.10
2022-10-01T13:39:39.516Z,29.40
2022-10-01T13:42:42.047Z,30.40
2022-10-01T13:45:43.698Z,30.70
2022-10-01T13:48:34.856Z,30.30
2022-10-01T13:51:21.090Z,31.40
2022-10-01T13:54:16.851Z,32.10
2022-10-01T13:57:26.219Z,31.10
2022-10-01T14:00:12.358Z,30.50
2022-10-01T14:03:30.296Z,29.80
2022-10-01T14:06:24.580Z,28.90
2022-10-01T14:09:11.272Z,29.60
2022-10-01T14:12:47.833Z,30.10
2022-10-01T14:15:59.155Z,30.70
2022-10-01T14:18:48.687Z,31.40
2022-10-01T14:22:04.416Z,31.10
2022-10-01T14:25:11.534Z,31.80
2022-10-01T14:28:15.592Z,32.80
2022-10-01T14:31:39.267Z,32.00
2022-10-01T14:34:31.360Z,31.50
2022-10-01T14:37:19.772Z,29.60
2022-10-01T14:40:24.255Z,30.70
2022-10-01T14:43:28.067Z,30.00
2022-10-01T14:46:17.008Z,30.70
2022-10-01T14:49:04.294Z,30.20
2022-10-01T14:52:03.949Z,29.80
2022-10-01T14:55:03.678Z,30.50
2022-10-01T14:57:54.363Z,30.30
2022-10-01T15:00:50.799Z,30.30
2022-10-01T15:03:42.406Z,28.30
2022-10-01T15:06:29.958Z,28.70
2022-10-01T15:09:19.122Z,28.00
2022-10-01T15:12:06.047Z,27.80
2022-10-01T15:14:54.699Z,28.20
2022-10-01T15:17:42.770Z,28.60
2022-10-01T15:20:29.328Z,29.80
2022-10-01T15:23:15.061Z,30.40
2022-10-01T15:26:05.057Z,29.60
2022-10-01T15:29:01.635Z,29.60
2022-10-01T15:31:49.639Z,29.80
2022-10-01T15:34:39.191Z,30.50
2022-10-01T15:37:35.270Z,29.60
2022-10-01T15:40:35.498Z,30.10
2022-10-01T15:43:42.086Z,29.40
2022-10-01T15:46:31.253Z,28.40
2022-10-01T15:49:20.573Z,29.00
2022-10-01T15:52:25.188Z,29.90
2022-10-01T15:55:15.852Z,30.10
2022-10-01T15:58:11.725Z,29.40
2022-10-01T16:01:13.308Z,30.10
2022-10-01T16:04:12.831Z,29.70
2022-10-01T16:06:58.935Z,30.00
2022-10-01T16:09:56.432Z,28.90
2022-10-01T16:12:42.544Z,28.10
2022-10-01T16:15:31.082Z,27.80
2022-10-01T16:18:26.076Z,28.40
2022-10-01T16:21:12.837Z,28.10
2022-10-01T16:23:59.130Z,28.00
2022-10-01T16:26:46.097Z,26.60
2022-10-01T16:29:32.588Z,25.80
2022-10-01T16:32:18.192Z,25.30
2022-10-01T16:35:20.873Z,25.00
2022-10-01T16:38:08.555Z,24.70
2022-10-01T16:40:54.384Z,24.30
2022-10-01T16:43:40.222Z,23.90
2022-10-01T16:46:26.877Z,24.00
2022-10-01T16:49:15.221Z,23.90
2022-10-01T16:52:01.477Z,23.70
2022-10-01T16:54:47.925Z,23.50
2022-10-01T16:57:33.513Z,23.30
2022-10-01T17:00:22.109Z,23.10
2022-10-01T17:03:17.728Z,22.90
2022-10-01T17:06:04.336Z,22.70
2022-10-01T17:08:50.479Z,22.60
2022-10-01T17:11:36.886Z,22.40
2022-10-01T17:14:23.341Z,22.40
2022-10-01T17:17:09.021Z,22.20
2022-10-01T17:19:54.498Z,22.20
2022-10-01T17:22:43.366Z,22.20
2022-10-01T17:25:32.403Z,22.20
2022-10-01T17:28:20.318Z,22.10
2022-10-01T17:31:07.641Z,21.90
2022-10-01T17:33:54.089Z,21.90
2022-10-01T17:36:39.914Z,21.60
2022-10-01T17:39:26.706Z,21.60
2022-10-01T17:42:16.704Z,21.50
2022-10-01T17:45:07.042Z,21.40
2022-10-01T17:47:54.015Z,21.40
2022-10-01T17:50:43.869Z,21.20
2022-10-01T17:53:35.930Z,21.10
2022-10-01T17:56:22.720Z,21.10
2022-10-01T17:59:09.418Z,21.00
2022-10-01T18:01:56.310Z,20.90
2022-10-01T18:04:43.716Z,20.90
2022-10-01T18:07:30.261Z,20.90
2022-10-01T18:10:16.162Z,20.70
2022-10-01T18:13:02.133Z,20.60
2022-10-01T18:15:48.373Z,20.60
2022-10-01T18:21:40.951Z,20.50
2022-10-01T18:24:26.881Z,20.40
2022-10-01T18:27:13.743Z,20.40
2022-10-01T18:30:00.022Z,20.40
2022-10-01T18:32:50.794Z,20.40
2022-10-01T18:35:37.282Z,20.30
2022-10-01T18:38:30.963Z,20.30
2022-10-01T18:41:36.601Z,20.20
2022-10-01T18:44:23.879Z,20.10
2022-10-01T18:47:26.145Z,20.10
2022-10-01T18:50:21.251Z,20.00
2022-10-01T18:53:33.046Z,20.00
2022-10-01T18:56:31.326Z,19.90
2022-10-01T18:59:25.984Z,19.80
2022-10-01T19:02:27.531Z,19.70
2022-10-01T19:05:32.770Z,19.70
2022-10-01T19:08:24.671Z,19.80
2022-10-01T19:11:17.692Z,19.70
2022-10-01T19:14:41.325Z,19.50
2022-10-01T19:17:44.025Z,19.50
2022-10-01T19:20:41.625Z,19.40
2022-10-01T19:23:53.637Z,19.40
2022-10-01T19:26:47.478Z,19.40
2022-10-01T19:29:39.361Z,19.30
2022-10-01T19:32:30.178Z,19.20
2022-10-01T19:35:49.541Z,19.30
2022-10-01T19:38:41.091Z,19.30
2022-10-01T19:41:43.382Z,19.20
2022-10-01T19:44:37.157Z,19.20
2022-10-01T19:47:57.414Z,19.20
2022-10-01T19:50:46.961Z,19.20
2022-10-01T19:53:37.444Z,19.10
2022-10-01T19:56:28.601Z,19.00
2022-10-01T19:59:18.965Z,18.90
2022-10-01T20:02:31.271Z,18.80
2022-10-01T20:05:47.712Z,18.80
2022-10-01T20:08:50.275Z,18.90
2022-10-01T20:11:55.297Z,18.80
2022-10-01T20:15:20.982Z,18.70
2022-10-01T20:18:37.395Z,18.80
2022-10-01T20:21:40.397Z,18.60
2022-10-01T20:24:42.545Z,18.60
2022-10-01T20:27:50.100Z,18.50
2022-10-01T20:30:48.766Z,18.40
2022-10-01T20:33:50.357Z,18.40
2022-10-01T20:36:43.650Z,18.40
2022-10-01T20:39:34.671Z,18.30
2022-10-01T20:42:41.705Z,18.30
2022-10-01T20:45:32.515Z,18.20
2022-10-01T20:48:22.929Z,18.20
2022-10-01T20:51:17.932Z,18.10
2022-10-01T20:54:09.317Z,18.10
2022-10-01T20:57:09.273Z,18.10
2022-10-01T21:00:00.633Z,18.20
2022-10-01T21:03:05.137Z,18.20
2022-10-01T21:06:25.743Z,18.10
2022-10-01T21:09:30.444Z,18.10
2022-10-01T21:12:28.321Z,18.10
2022-10-01T21:15:16.621Z,18.10
2022-10-01T21:18:12.360Z,18.00
2022-10-01T21:21:20.059Z,18.00
2022-10-01T21:24:44.345Z,17.90
2022-10-01T21:28:01.575Z,17.90
2022-10-01T21:31:03.081Z,17.90
2022-10-01T21:34:22.298Z,17.90
2022-10-01T21:37:16.494Z,17.80
2022-10-01T21:40:44.409Z,17.70
2022-10-01T21:43:48.822Z,17.80
2022-10-01T21:46:59.186Z,17.70
2022-10-01T21:50:12.172Z,17.70
2022-10-01T21:53:16.373Z,17.70
2022-10-01T21:56:30.178Z,17.60
2022-10-01T21:59:54.568Z,17.60
2022-10-01T22:02:53.702Z,17.60
2022-10-01T22:05:44.785Z,17.50
2022-10-01T22:08:54.737Z,17.50
2022-10-01T22:11:48.246Z,17.40
2022-10-01T22:14:34.704Z,17.40
2022-10-01T22:17:27.687Z,17.40
2022-10-01T22:20:15.088Z,17.30
2022-10-01T22:23:06.550Z,17.40
2022-10-01T22:25:58.578Z,17.30
2022-10-01T22:28:49.386Z,17.20
2022-10-01T22:31:37.056Z,17.30
2022-10-01T22:34:28.073Z,17.20
2022-10-01T22:37:18.777Z,17.10
2022-10-01T22:40:18.339Z,17.10
2022-10-01T22:43:11.241Z,17.10
2022-10-01T22:46:32.177Z,17.00
2022-10-01T22:49:37.148Z,17.10
2022-10-01T22:52:45.393Z,17.20
2022-10-01T22:55:55.196Z,17.10
2022-10-01T22:59:28.872Z,16.90
2022-10-01T23:02:34.290Z,16.80
2022-10-01T23:05:20.717Z,16.90
2022-10-01T23:08:23.441Z,16.90
2022-10-01T23:11:12.251Z,16.90
2022-10-01T23:14:07.361Z,16.90
2022-10-01T23:17:01.949Z,16.80
2022-10-01T23:20:03.553Z,16.70
2022-10-01T23:23:17.754Z,16.70
2022-10-01T23:26:24.787Z,16.70
2022-10-01T23:29:29.799Z,16.60
2022-10-01T23:32:24.805Z,16.70
2022-10-01T23:35:35.438Z,16.60
2022-10-01T23:38:24.713Z,16.70
2022-10-01T23:41:35.283Z,16.60
2022-10-01T23:44:35.717Z,16.60
2022-10-01T23:47:56.780Z,16.60
2022-10-01T23:50:49.778Z,16.60
2022-10-01T23:53:51.897Z,16.50
2022-10-01T23:56:50.028Z,16.60
2022-10-01T23:59:43.550Z,16.50
